sensor_id;sensor_type;location;lat;lon;timestamp;pressure;altitude;pressure_sealevel;temperature;humidity
59337;BME280;45115;52.002;4.686;2022-12-10T00:01:20;100871.47;;;-2.21;100.00
59337;BME280;45115;52.002;4.686;2022-12-10T00:03:47;100874.91;;;-2.36;100.00
59337;BME280;45115;52.002;4.686;2022-12-10T00:06:16;100878.69;;;-2.38;100.00
59337;BME280;45115;52.002;4.686;2022-12-10T00:08:44;100881.91;;;-2.51;100.00
59337;BME280;45115;52.002;4.686;2022-12-10T00:11:13;100869.00;;;-2.60;100.00
59337;BME280;45115;52.002;4.686;2022-12-10T00:13:40;100860.31;;;-2.67;100.00
59337;BME280;45115;52.002;4.686;2022-12-10T00:16:09;100897.22;;;-2.42;100.00
59337;BME280;45115;52.002;4.686;2022-12-10T00:18:37;100884.66;;;-2.23;100.00
59337;BME280;45115;52.002;4.686;2022-12-10T00:21:05;100859.41;;;-2.29;100.00
59337;BME280;45115;52.002;4.686;2022-12-10T00:23:32;100894.22;;;-2.08;100.00
59337;BME280;45115;52.002;4.686;2022-12-10T00:26:03;100876.41;;;-2.11;100.00
59337;BME280;45115;52.002;4.686;2022-12-10T00:28:30;100892.13;;;-1.83;100.00
59337;BME280;45115;52.002;4.686;2022-12-10T00:31:02;100887.00;;;-1.76;100.00
59337;BME280;45115;52.002;4.686;2022-12-10T00:33:29;100886.63;;;-1.73;100.00
59337;BME280;45115;52.002;4.686;2022-12-10T00:36:01;100882.97;;;-1.79;100.00
59337;BME280;45115;52.002;4.686;2022-12-10T00:38:28;100885.03;;;-1.74;100.00
59337;BME280;45115;52.002;4.686;2022-12-10T00:40:55;100856.22;;;-1.94;100.00
59337;BME280;45115;52.002;4.686;2022-12-10T00:43:23;100894.25;;;-1.71;100.00
59337;BME280;45115;52.002;4.686;2022-12-10T00:45:50;100894.00;;;-1.55;100.00
59337;BME280;45115;52.002;4.686;2022-12-10T00:48:17;100894.34;;;-1.43;100.00
59337;BME280;45115;52.002;4.686;2022-12-10T00:50:44;100881.06;;;-1.48;100.00
59337;BME280;45115;52.002;4.686;2022-12-10T00:53:20;100870.09;;;-1.43;100.00
59337;BME280;45115;52.002;4.686;2022-12-10T00:55:47;100897.44;;;-1.32;100.00
59337;BME280;45115;52.002;4.686;2022-12-10T00:58:13;100892.78;;;-1.37;100.00
59337;BME280;45115;52.002;4.686;2022-12-10T01:00:41;100873.88;;;-1.46;100.00
59337;BME280;45115;52.002;4.686;2022-12-10T01:03:08;100887.03;;;-1.32;100.00
59337;BME280;45115;52.002;4.686;2022-12-10T01:05:35;100893.84;;;-1.31;100.00
59337;BME280;45115;52.002;4.686;2022-12-10T01:08:02;100908.34;;;-1.22;100.00
59337;BME280;45115;52.002;4.686;2022-12-10T01:10:30;100901.94;;;-1.19;100.00
59337;BME280;45115;52.002;4.686;2022-12-10T01:12:57;100910.88;;;-1.29;100.00
59337;BME280;45115;52.002;4.686;2022-12-10T01:15:23;100918.44;;;-1.34;100.00
59337;BME280;45115;52.002;4.686;2022-12-10T01:17:52;100923.13;;;-1.44;100.00
59337;BME280;45115;52.002;4.686;2022-12-10T01:20:18;100902.47;;;-1.53;100.00
59337;BME280;45115;52.002;4.686;2022-12-10T01:22:47;100909.69;;;-1.48;100.00
59337;BME280;45115;52.002;4.686;2022-12-10T01:25:14;100906.59;;;-1.58;100.00
59337;BME280;45115;52.002;4.686;2022-12-10T01:27:40;100926.56;;;-1.44;100.00
59337;BME280;45115;52.002;4.686;2022-12-10T01:30:08;100922.38;;;-1.38;100.00
59337;BME280;45115;52.002;4.686;2022-12-10T01:32:35;100918.25;;;-1.32;100.00
59337;BME280;45115;52.002;4.686;2022-12-10T01:35:04;100921.88;;;-1.27;100.00
59337;BME280;45115;52.002;4.686;2022-12-10T01:37:31;100930.16;;;-1.23;100.00
59337;BME280;45115;52.002;4.686;2022-12-10T01:39:57;100932.00;;;-1.17;100.00
59337;BME280;45115;52.002;4.686;2022-12-10T01:42:24;100934.22;;;-1.14;100.00
59337;BME280;45115;52.002;4.686;2022-12-10T01:45:08;100933.69;;;-1.09;100.00
59337;BME280;45115;52.002;4.686;2022-12-10T01:47:35;100920.09;;;-1.04;100.00
59337;BME280;45115;52.002;4.686;2022-12-10T01:50:05;100927.78;;;-0.96;100.00
59337;BME280;45115;52.002;4.686;2022-12-10T01:52:32;100935.59;;;-0.96;100.00
59337;BME280;45115;52.002;4.686;2022-12-10T01:54:59;100938.44;;;-0.91;100.00
59337;BME280;45115;52.002;4.686;2022-12-10T01:57:27;100941.28;;;-0.86;100.00
59337;BME280;45115;52.002;4.686;2022-12-10T01:59:57;100939.06;;;-0.89;100.00
59337;BME280;45115;52.002;4.686;2022-12-10T02:02:36;100937.88;;;-0.86;100.00
59337;BME280;45115;52.002;4.686;2022-12-10T02:05:10;100938.50;;;-0.84;100.00
59337;BME280;45115;52.002;4.686;2022-12-10T02:07:50;100924.41;;;-0.90;100.00
59337;BME280;45115;52.002;4.686;2022-12-10T02:10:27;100937.94;;;-0.79;100.00
59337;BME280;45115;52.002;4.686;2022-12-10T02:13:02;100940.72;;;-0.81;100.00
59337;BME280;45115;52.002;4.686;2022-12-10T02:15:34;100932.09;;;-0.82;100.00
59337;BME280;45115;52.002;4.686;2022-12-10T02:18:05;100939.94;;;-0.82;100.00
59337;BME280;45115;52.002;4.686;2022-12-10T02:20:38;100942.13;;;-0.78;100.00
59337;BME280;45115;52.002;4.686;2022-12-10T02:23:10;100939.53;;;-0.78;100.00
59337;BME280;45115;52.002;4.686;2022-12-10T02:25:41;100934.13;;;-0.77;100.00
59337;BME280;45115;52.002;4.686;2022-12-10T02:28:17;100941.38;;;-0.72;100.00
59337;BME280;45115;52.002;4.686;2022-12-10T02:30:48;100934.94;;;-0.76;100.00
59337;BME280;45115;52.002;4.686;2022-12-10T02:33:17;100936.31;;;-0.81;100.00
59337;BME280;45115;52.002;4.686;2022-12-10T02:35:47;100937.56;;;-0.76;100.00
59337;BME280;45115;52.002;4.686;2022-12-10T02:38:19;100925.91;;;-0.81;100.00
59337;BME280;45115;52.002;4.686;2022-12-10T02:40:51;100936.56;;;-0.75;100.00
59337;BME280;45115;52.002;4.686;2022-12-10T02:43:22;100939.72;;;-0.80;100.00
59337;BME280;45115;52.002;4.686;2022-12-10T02:45:51;100933.13;;;-0.76;100.00
59337;BME280;45115;52.002;4.686;2022-12-10T02:48:18;100937.34;;;-0.75;100.00
59337;BME280;45115;52.002;4.686;2022-12-10T02:50:46;100936.50;;;-0.82;100.00
59337;BME280;45115;52.002;4.686;2022-12-10T02:53:13;100933.06;;;-0.83;100.00
59337;BME280;45115;52.002;4.686;2022-12-10T02:55:55;100931.47;;;-0.84;100.00
59337;BME280;45115;52.002;4.686;2022-12-10T02:58:28;100938.88;;;-0.87;100.00
59337;BME280;45115;52.002;4.686;2022-12-10T03:01:09;100934.84;;;-0.90;100.00
59337;BME280;45115;52.002;4.686;2022-12-10T03:03:43;100943.25;;;-0.88;100.00
59337;BME280;45115;52.002;4.686;2022-12-10T03:06:18;100932.22;;;-0.90;100.00
59337;BME280;45115;52.002;4.686;2022-12-10T03:08:50;100928.38;;;-0.94;100.00
59337;BME280;45115;52.002;4.686;2022-12-10T03:11:19;100933.66;;;-0.87;100.00
59337;BME280;45115;52.002;4.686;2022-12-10T03:13:53;100930.47;;;-0.83;100.00
59337;BME280;45115;52.002;4.686;2022-12-10T03:16:24;100930.47;;;-0.83;100.00
59337;BME280;45115;52.002;4.686;2022-12-10T03:18:56;100931.22;;;-0.89;100.00
59337;BME280;45115;52.002;4.686;2022-12-10T03:21:24;100932.22;;;-0.90;100.00
59337;BME280;45115;52.002;4.686;2022-12-10T03:23:53;100918.84;;;-0.87;100.00
59337;BME280;45115;52.002;4.686;2022-12-10T03:26:21;100924.28;;;-0.82;100.00
59337;BME280;45115;52.002;4.686;2022-12-10T03:28:51;100922.47;;;-0.81;100.00
59337;BME280;45115;52.002;4.686;2022-12-10T03:31:20;100916.84;;;-0.85;100.00
59337;BME280;45115;52.002;4.686;2022-12-10T03:33:49;100919.69;;;-0.79;100.00
59337;BME280;45115;52.002;4.686;2022-12-10T03:36:16;100903.22;;;-0.87;100.00
59337;BME280;45115;52.002;4.686;2022-12-10T03:38:45;100918.09;;;-0.81;100.00
59337;BME280;45115;52.002;4.686;2022-12-10T03:41:12;100917.50;;;-0.76;100.00
59337;BME280;45115;52.002;4.686;2022-12-10T03:43:50;100920.50;;;-0.79;100.00
59337;BME280;45115;52.002;4.686;2022-12-10T03:46:17;100926.31;;;-0.77;100.00
59337;BME280;45115;52.002;4.686;2022-12-10T03:48:44;100936.88;;;-0.85;100.00
59337;BME280;45115;52.002;4.686;2022-12-10T03:51:12;100932.28;;;-0.83;100.00
59337;BME280;45115;52.002;4.686;2022-12-10T03:53:40;100933.28;;;-0.84;100.00
59337;BME280;45115;52.002;4.686;2022-12-10T03:56:07;100945.13;;;-0.82;100.00
59337;BME280;45115;52.002;4.686;2022-12-10T03:58:34;100941.34;;;-0.79;100.00
59337;BME280;45115;52.002;4.686;2022-12-10T04:01:01;100938.94;;;-0.81;100.00
59337;BME280;45115;52.002;4.686;2022-12-10T04:03:28;100938.06;;;-0.88;100.00
59337;BME280;45115;52.002;4.686;2022-12-10T04:06:01;100923.59;;;-0.90;100.00
59337;BME280;45115;52.002;4.686;2022-12-10T04:08:29;100934.72;;;-0.82;100.00
59337;BME280;45115;52.002;4.686;2022-12-10T04:11:02;100942.13;;;-0.78;100.00
59337;BME280;45115;52.002;4.686;2022-12-10T04:13:31;100941.13;;;-0.77;100.00
59337;BME280;45115;52.002;4.686;2022-12-10T04:16:15;100942.13;;;-0.78;100.00
59337;BME280;45115;52.002;4.686;2022-12-10T04:18:56;100940.91;;;-0.83;100.00
59337;BME280;45115;52.002;4.686;2022-12-10T04:21:24;100940.94;;;-0.76;100.00
59337;BME280;45115;52.002;4.686;2022-12-10T04:24:11;100938.59;;;-0.71;100.00
59337;BME280;45115;52.002;4.686;2022-12-10T04:26:56;100933.19;;;-0.69;100.00
59337;BME280;45115;52.002;4.686;2022-12-10T04:29:25;100938.59;;;-0.71;100.00
59337;BME280;45115;52.002;4.686;2022-12-10T04:31:52;100944.97;;;-0.73;100.00
59337;BME280;45115;52.002;4.686;2022-12-10T04:34:20;100946.81;;;-0.67;100.00
59337;BME280;45115;52.002;4.686;2022-12-10T04:36:47;100944.22;;;-0.67;100.00
59337;BME280;45115;52.002;4.686;2022-12-10T04:39:15;100939.41;;;-0.70;100.00
59337;BME280;45115;52.002;4.686;2022-12-10T04:41:45;100937.03;;;-0.65;100.00
59337;BME280;45115;52.002;4.686;2022-12-10T04:44:12;100951.84;;;-0.65;100.00
59337;BME280;45115;52.002;4.686;2022-12-10T04:46:39;100951.03;;;-0.66;100.00
59337;BME280;45115;52.002;4.686;2022-12-10T04:49:06;100949.84;;;-0.63;100.00
59337;BME280;45115;52.002;4.686;2022-12-10T04:51:33;100943.63;;;-0.69;100.00
59337;BME280;45115;52.002;4.686;2022-12-10T04:54:00;100945.47;;;-0.63;100.00
59337;BME280;45115;52.002;4.686;2022-12-10T04:56:28;100945.81;;;-0.66;100.00
59337;BME280;45115;52.002;4.686;2022-12-10T04:58:55;100938.22;;;-0.68;100.00
59337;BME280;45115;52.002;4.686;2022-12-10T05:01:23;100941.44;;;-0.65;100.00
59337;BME280;45115;52.002;4.686;2022-12-10T05:03:50;100936.78;;;-0.70;100.00
59337;BME280;45115;52.002;4.686;2022-12-10T05:06:18;100921.28;;;-0.78;100.00
59337;BME280;45115;52.002;4.686;2022-12-10T05:08:46;100935.56;;;-0.74;100.00
59337;BME280;45115;52.002;4.686;2022-12-10T05:11:15;100936.94;;;-0.78;100.00
59337;BME280;45115;52.002;4.686;2022-12-10T05:13:44;100938.53;;;-0.77;100.00
59337;BME280;45115;52.002;4.686;2022-12-10T05:16:12;100948.41;;;-0.73;100.00
59337;BME280;45115;52.002;4.686;2022-12-10T05:18:40;100944.41;;;-0.69;100.00
59337;BME280;45115;52.002;4.686;2022-12-10T05:21:10;100940.94;;;-0.76;100.00
59337;BME280;45115;52.002;4.686;2022-12-10T05:23:38;100950.00;;;-0.72;100.00
59337;BME280;45115;52.002;4.686;2022-12-10T05:26:06;100931.34;;;-0.75;100.00
59337;BME280;45115;52.002;4.686;2022-12-10T05:28:34;100943.78;;;-0.71;100.00
59337;BME280;45115;52.002;4.686;2022-12-10T05:31:04;100942.78;;;-0.70;100.00
59337;BME280;45115;52.002;4.686;2022-12-10T05:33:31;100943.63;;;-0.69;100.00
59337;BME280;45115;52.002;4.686;2022-12-10T05:36:00;100938.41;;;-0.69;100.00
59337;BME280;45115;52.002;4.686;2022-12-10T05:38:29;100944.22;;;-0.67;100.00
59337;BME280;45115;52.002;4.686;2022-12-10T05:41:00;100932.38;;;-0.70;100.00
59337;BME280;45115;52.002;4.686;2022-12-10T05:43:27;100948.66;;;-0.61;100.00
59337;BME280;45115;52.002;4.686;2022-12-10T05:45:59;100940.25;;;-0.63;100.00
59337;BME280;45115;52.002;4.686;2022-12-10T05:48:27;100937.63;;;-0.63;100.00
59337;BME280;45115;52.002;4.686;2022-12-10T05:50:53;100938.63;;;-0.64;100.00
59337;BME280;45115;52.002;4.686;2022-12-10T05:53:20;100942.84;;;-0.63;100.00
59337;BME280;45115;52.002;4.686;2022-12-10T05:55:47;100945.09;;;-0.60;100.00
59337;BME280;45115;52.002;4.686;2022-12-10T05:58:14;100945.50;;;-0.56;100.00
59337;BME280;45115;52.002;4.686;2022-12-10T06:00:41;100948.47;;;-0.59;100.00
59337;BME280;45115;52.002;4.686;2022-12-10T06:03:08;100951.47;;;-0.62;100.00
59337;BME280;45115;52.002;4.686;2022-12-10T06:05:37;100958.47;;;-0.63;100.00
59337;BME280;45115;52.002;4.686;2022-12-10T06:08:05;100942.63;;;-0.68;100.00
59337;BME280;45115;52.002;4.686;2022-12-10T06:10:33;100949.47;;;-0.60;100.00
59337;BME280;45115;52.002;4.686;2022-12-10T06:13:00;100954.81;;;-0.69;100.00
59337;BME280;45115;52.002;4.686;2022-12-10T06:15:27;100956.69;;;-0.62;100.00
59337;BME280;45115;52.002;4.686;2022-12-10T06:17:54;100951.84;;;-0.65;100.00
59337;BME280;45115;52.002;4.686;2022-12-10T06:20:21;100962.69;;;-0.62;100.00
59337;BME280;45115;52.002;4.686;2022-12-10T06:22:49;100963.94;;;-0.58;100.00
59337;BME280;45115;52.002;4.686;2022-12-10T06:25:16;100964.06;;;-0.66;100.00
59337;BME280;45115;52.002;4.686;2022-12-10T06:27:43;100966.25;;;-0.70;100.00
59337;BME280;45115;52.002;4.686;2022-12-10T06:30:10;100969.47;;;-0.68;100.00
59337;BME280;45115;52.002;4.686;2022-12-10T06:32:37;100971.50;;;-0.63;100.00
59337;BME280;45115;52.002;4.686;2022-12-10T06:35:05;100975.31;;;-0.65;100.00
59337;BME280;45115;52.002;4.686;2022-12-10T06:37:32;100964.81;;;-0.72;100.00
59337;BME280;45115;52.002;4.686;2022-12-10T06:40:00;100980.50;;;-0.65;100.00
59337;BME280;45115;52.002;4.686;2022-12-10T06:42:27;100974.88;;;-0.69;100.00
59337;BME280;45115;52.002;4.686;2022-12-10T06:44:53;100983.94;;;-0.65;100.00
59337;BME280;45115;52.002;4.686;2022-12-10T06:47:20;100982.06;;;-0.71;100.00
59337;BME280;45115;52.002;4.686;2022-12-10T06:49:47;100977.31;;;-0.68;100.00
59337;BME280;45115;52.002;4.686;2022-12-10T06:52:14;100975.06;;;-0.71;100.00
59337;BME280;45115;52.002;4.686;2022-12-10T06:54:40;100980.28;;;-0.71;100.00
59337;BME280;45115;52.002;4.686;2022-12-10T06:57:08;100986.91;;;-0.68;100.00
59337;BME280;45115;52.002;4.686;2022-12-10T06:59:35;100984.53;;;-0.63;100.00
59337;BME280;45115;52.002;4.686;2022-12-10T07:02:02;100991.53;;;-0.63;100.00
59337;BME280;45115;52.002;4.686;2022-12-10T07:04:29;100978.47;;;-0.70;100.00
59337;BME280;45115;52.002;4.686;2022-12-10T07:06:56;100974.44;;;-0.73;100.00
59337;BME280;45115;52.002;4.686;2022-12-10T07:09:23;101000.34;;;-0.64;100.00
59337;BME280;45115;52.002;4.686;2022-12-10T07:11:50;100983.63;;;-0.77;100.00
59337;BME280;45115;52.002;4.686;2022-12-10T07:14:18;100999.81;;;-0.60;100.00
59337;BME280;45115;52.002;4.686;2022-12-10T07:16:45;101001.59;;;-0.60;100.00
59337;BME280;45115;52.002;4.686;2022-12-10T07:19:12;101002.78;;;-0.63;100.00
59337;BME280;45115;52.002;4.686;2022-12-10T07:21:40;101006.63;;;-0.59;100.00
59337;BME280;45115;52.002;4.686;2022-12-10T07:24:10;101006.38;;;-0.64;100.00
59337;BME280;45115;52.002;4.686;2022-12-10T07:26:39;101004.38;;;-0.62;100.00
59337;BME280;45115;52.002;4.686;2022-12-10T07:29:09;101008.34;;;-0.66;100.00
59337;BME280;45115;52.002;4.686;2022-12-10T07:31:40;101003.53;;;-0.69;100.00
59337;BME280;45115;52.002;4.686;2022-12-10T07:34:08;100997.91;;;-0.73;100.00
59337;BME280;45115;52.002;4.686;2022-12-10T07:36:35;101007.19;;;-0.63;100.00
59337;BME280;45115;52.002;4.686;2022-12-10T07:39:04;101010.41;;;-0.61;100.00
59337;BME280;45115;52.002;4.686;2022-12-10T07:41:31;101000.13;;;-0.70;100.00
59337;BME280;45115;52.002;4.686;2022-12-10T07:43:59;101007.94;;;-0.70;100.00
59337;BME280;45115;52.002;4.686;2022-12-10T07:46:28;101003.53;;;-0.69;100.00
59337;BME280;45115;52.002;4.686;2022-12-10T07:48:59;101011.41;;;-0.62;100.00
59337;BME280;45115;52.002;4.686;2022-12-10T07:51:26;101012.38;;;-0.63;100.00
59337;BME280;45115;52.002;4.686;2022-12-10T07:53:53;101012.97;;;-0.68;100.00
59337;BME280;45115;52.002;4.686;2022-12-10T07:56:21;101014.56;;;-0.67;100.00
59337;BME280;45115;52.002;4.686;2022-12-10T07:58:48;101015.81;;;-0.63;100.00
59337;BME280;45115;52.002;4.686;2022-12-10T08:01:17;101019.22;;;-0.62;100.00
59337;BME280;45115;52.002;4.686;2022-12-10T08:03:45;101013.97;;;-0.69;100.00
59337;BME280;45115;52.002;4.686;2022-12-10T08:06:15;101024.00;;;-0.66;100.00
59337;BME280;45115;52.002;4.686;2022-12-10T08:08:43;101034.22;;;-0.64;100.00
59337;BME280;45115;52.002;4.686;2022-12-10T08:11:11;101030.84;;;-0.65;100.00
59337;BME280;45115;52.002;4.686;2022-12-10T08:13:38;101028.97;;;-0.71;100.00
59337;BME280;45115;52.002;4.686;2022-12-10T08:16:07;101027.34;;;-0.72;100.00
59337;BME280;45115;52.002;4.686;2022-12-10T08:18:34;101045.47;;;-0.64;100.00
59337;BME280;45115;52.002;4.686;2022-12-10T08:21:03;101025.75;;;-0.73;100.00
59337;BME280;45115;52.002;4.686;2022-12-10T08:23:32;101037.94;;;-0.74;100.00
59337;BME280;45115;52.002;4.686;2022-12-10T08:26:02;101056.25;;;-0.67;100.00
59337;BME280;45115;52.002;4.686;2022-12-10T08:28:29;101054.78;;;-0.76;100.00
59337;BME280;45115;52.002;4.686;2022-12-10T08:30:56;101059.44;;;-0.72;100.00
59337;BME280;45115;52.002;4.686;2022-12-10T08:33:22;101062.66;;;-0.70;100.00
59337;BME280;45115;52.002;4.686;2022-12-10T08:35:49;101069.03;;;-0.72;100.00
59337;BME280;45115;52.002;4.686;2022-12-10T08:38:16;101061.66;;;-0.69;100.00
59337;BME280;45115;52.002;4.686;2022-12-10T08:40:44;101052.19;;;-0.76;100.00
59337;BME280;45115;52.002;4.686;2022-12-10T08:43:11;101069.09;;;-0.65;100.00
59337;BME280;45115;52.002;4.686;2022-12-10T08:45:37;101065.88;;;-0.68;100.00
59337;BME280;45115;52.002;4.686;2022-12-10T08:48:04;101075.66;;;-0.70;100.00
59337;BME280;45115;52.002;4.686;2022-12-10T08:50:31;101057.56;;;-0.78;100.00
59337;BME280;45115;52.002;4.686;2022-12-10T08:52:58;101051.06;;;-0.89;100.00
59337;BME280;45115;52.002;4.686;2022-12-10T08:55:24;101068.34;;;-0.81;100.00
59337;BME280;45115;52.002;4.686;2022-12-10T08:57:52;101073.03;;;-0.76;100.00
59337;BME280;45115;52.002;4.686;2022-12-10T09:00:19;101065.56;;;-0.79;100.00
59337;BME280;45115;52.002;4.686;2022-12-10T09:02:46;101078.53;;;-0.64;100.00
59337;BME280;45115;52.002;4.686;2022-12-10T09:05:13;101076.34;;;-0.61;100.00
59337;BME280;45115;52.002;4.686;2022-12-10T09:07:40;101075.38;;;-0.60;100.00
59337;BME280;45115;52.002;4.686;2022-12-10T09:10:08;101077.78;;;-0.58;100.00
59337;BME280;45115;52.002;4.686;2022-12-10T09:12:35;101067.81;;;-0.76;100.00
59337;BME280;45115;52.002;4.686;2022-12-10T09:15:05;101083.66;;;-0.71;100.00
59337;BME280;45115;52.002;4.686;2022-12-10T09:17:34;101075.31;;;-0.67;100.00
59337;BME280;45115;52.002;4.686;2022-12-10T09:20:01;101080.72;;;-0.68;100.00
59337;BME280;45115;52.002;4.686;2022-12-10T09:22:28;101074.06;;;-0.71;100.00
59337;BME280;45115;52.002;4.686;2022-12-10T09:24:55;101083.31;;;-0.68;100.00
59337;BME280;45115;52.002;4.686;2022-12-10T09:27:21;101090.19;;;-0.60;100.00
59337;BME280;45115;52.002;4.686;2022-12-10T09:29:48;101085.81;;;-0.60;100.00
59337;BME280;45115;52.002;4.686;2022-12-10T09:32:16;101098.25;;;-0.55;100.00
59337;BME280;45115;52.002;4.686;2022-12-10T09:34:43;101098.00;;;-0.60;100.00
59337;BME280;45115;52.002;4.686;2022-12-10T09:37:10;101093.38;;;-0.65;100.00
59337;BME280;45115;52.002;4.686;2022-12-10T09:39:37;101113.28;;;-0.57;100.00
59337;BME280;45115;52.002;4.686;2022-12-10T09:42:17;101111.22;;;-0.62;100.00
59337;BME280;45115;52.002;4.686;2022-12-10T09:44:53;101101.97;;;-0.64;100.00
59337;BME280;45115;52.002;4.686;2022-12-10T09:47:28;101118.69;;;-0.59;100.00
59337;BME280;45115;52.002;4.686;2022-12-10T09:50:02;101113.09;;;-0.56;100.00
59337;BME280;45115;52.002;4.686;2022-12-10T09:52:36;101104.09;;;-0.53;100.00
59337;BME280;45115;52.002;4.686;2022-12-10T09:55:11;101109.44;;;-0.61;100.00
59337;BME280;45115;52.002;4.686;2022-12-10T09:57:41;101115.25;;;-0.59;100.00
59337;BME280;45115;52.002;4.686;2022-12-10T10:00:18;101112.66;;;-0.59;100.00
59337;BME280;45115;52.002;4.686;2022-12-10T10:02:48;101120.59;;;-0.68;100.00
59337;BME280;45115;52.002;4.686;2022-12-10T10:05:20;101119.28;;;-0.57;100.00
59337;BME280;45115;52.002;4.686;2022-12-10T10:07:51;101119.38;;;-0.50;100.00
59337;BME280;45115;52.002;4.686;2022-12-10T10:10:24;101117.56;;;-0.49;100.00
59337;BME280;45115;52.002;4.686;2022-12-10T10:12:53;101119.00;;;-0.47;100.00
59337;BME280;45115;52.002;4.686;2022-12-10T10:15:25;101105.34;;;-0.49;100.00
59337;BME280;45115;52.002;4.686;2022-12-10T10:17:56;101122.41;;;-0.46;100.00
59337;BME280;45115;52.002;4.686;2022-12-10T10:20:24;101122.81;;;-0.43;100.00
59337;BME280;45115;52.002;4.686;2022-12-10T10:22:53;101125.81;;;-0.46;100.00
59337;BME280;45115;52.002;4.686;2022-12-10T10:25:23;101124.91;;;-0.38;100.00
59337;BME280;45115;52.002;4.686;2022-12-10T10:27:50;101097.44;;;-0.56;100.00
59337;BME280;45115;52.002;4.686;2022-12-10T10:30:18;101123.72;;;-0.35;100.00
59337;BME280;45115;52.002;4.686;2022-12-10T10:32:48;101119.75;;;-0.31;100.00
59337;BME280;45115;52.002;4.686;2022-12-10T10:35:29;101110.84;;;-0.37;100.00
59337;BME280;45115;52.002;4.686;2022-12-10T10:37:59;101131.38;;;-0.27;100.00
59337;BME280;45115;52.002;4.686;2022-12-10T10:40:30;101123.72;;;-0.35;100.00
59337;BME280;45115;52.002;4.686;2022-12-10T10:42:59;101126.13;;;-0.34;100.00
59337;BME280;45115;52.002;4.686;2022-12-10T10:45:38;101122.47;;;-0.39;100.00
59337;BME280;45115;52.002;4.686;2022-12-10T10:48:10;101126.44;;;-0.44;100.00
59337;BME280;45115;52.002;4.686;2022-12-10T10:50:41;101123.06;;;-0.37;100.00
59337;BME280;45115;52.002;4.686;2022-12-10T10:53:40;101123.13;;;-0.31;100.00
59337;BME280;45115;52.002;4.686;2022-12-10T10:56:11;101115.88;;;-0.35;100.00
59337;BME280;45115;52.002;4.686;2022-12-10T10:58:49;101115.75;;;-0.27;100.00
59337;BME280;45115;52.002;4.686;2022-12-10T11:01:20;101113.34;;;-0.29;100.00
59337;BME280;45115;52.002;4.686;2022-12-10T11:03:50;101116.19;;;-0.23;100.00
59337;BME280;45115;52.002;4.686;2022-12-10T11:06:21;101113.28;;;-0.35;100.00
59337;BME280;45115;52.002;4.686;2022-12-10T11:08:51;101115.25;;;-0.37;100.00
59337;BME280;45115;52.002;4.686;2022-12-10T11:11:25;101127.94;;;-0.34;100.00
59337;BME280;45115;52.002;4.686;2022-12-10T11:14:13;101121.28;;;-0.37;100.00
59337;BME280;45115;52.002;4.686;2022-12-10T11:16:39;101125.13;;;-0.33;100.00
59337;BME280;45115;52.002;4.686;2022-12-10T11:19:18;101117.25;;;-0.39;100.00
59337;BME280;45115;52.002;4.686;2022-12-10T11:21:47;101122.53;;;-0.33;100.00
59337;BME280;45115;52.002;4.686;2022-12-10T11:24:17;101111.44;;;-0.42;100.00
59337;BME280;45115;52.002;4.686;2022-12-10T11:26:56;101121.66;;;-0.40;100.00
59337;BME280;45115;52.002;4.686;2022-12-10T11:29:34;101118.84;;;-0.38;100.00
59337;BME280;45115;52.002;4.686;2022-12-10T11:32:15;101104.41;;;-0.41;100.00
59337;BME280;45115;52.002;4.686;2022-12-10T11:35:01;101115.75;;;-0.27;100.00
59337;BME280;45115;52.002;4.686;2022-12-10T11:37:33;101116.94;;;-0.30;100.00
59337;BME280;45115;52.002;4.686;2022-12-10T11:40:10;101110.28;;;-0.32;100.00
59337;BME280;45115;52.002;4.686;2022-12-10T11:42:46;101120.59;;;-0.24;100.00
59337;BME280;45115;52.002;4.686;2022-12-10T11:45:18;101118.34;;;-0.27;100.00
59337;BME280;45115;52.002;4.686;2022-12-10T11:47:58;101110.22;;;-0.17;100.00
59337;BME280;45115;52.002;4.686;2022-12-10T11:50:36;101109.47;;;-0.11;100.00
59337;BME280;45115;52.002;4.686;2022-12-10T11:53:38;101101.75;;;-0.19;100.00
59337;BME280;45115;52.002;4.686;2022-12-10T11:56:09;101106.25;;;-0.13;100.00
59337;BME280;45115;52.002;4.686;2022-12-10T11:58:52;101114.16;;;0.01;100.00
59337;BME280;45115;52.002;4.686;2022-12-10T12:01:27;101106.34;;;0.01;100.00
59337;BME280;45115;52.002;4.686;2022-12-10T12:04:15;101109.69;;;-0.06;100.00
59337;BME280;45115;52.002;4.686;2022-12-10T12:07:01;101116.59;;;0.02;100.00
59337;BME280;45115;52.002;4.686;2022-12-10T12:09:41;101119.63;;;0.06;100.00
59337;BME280;45115;52.002;4.686;2022-12-10T12:12:20;101106.50;;;-0.01;100.00
59337;BME280;45115;52.002;4.686;2022-12-10T12:14:55;101114.34;;;-0.01;100.00
59337;BME280;45115;52.002;4.686;2022-12-10T12:17:26;101109.13;;;-0.01;100.00
59337;BME280;45115;52.002;4.686;2022-12-10T12:19:54;101117.59;;;0.08;100.00
59337;BME280;45115;52.002;4.686;2022-12-10T12:22:26;101107.41;;;0.13;100.00
59337;BME280;45115;52.002;4.686;2022-12-10T12:24:58;101104.78;;;0.13;100.00
59337;BME280;45115;52.002;4.686;2022-12-10T12:27:31;101106.44;;;0.21;100.00
59337;BME280;45115;52.002;4.686;2022-12-10T12:30:05;101102.88;;;0.29;100.00
59337;BME280;45115;52.002;4.686;2022-12-10T12:32:40;101090.38;;;0.17;100.00
59337;BME280;45115;52.002;4.686;2022-12-10T12:35:14;101102.81;;;0.15;100.00
59337;BME280;45115;52.002;4.686;2022-12-10T12:37:46;101093.38;;;0.14;100.00
59337;BME280;45115;52.002;4.686;2022-12-10T12:40:27;101096.41;;;0.18;100.00
59337;BME280;45115;52.002;4.686;2022-12-10T12:42:58;101093.19;;;0.16;100.00
59337;BME280;45115;52.002;4.686;2022-12-10T12:45:32;101095.59;;;0.17;100.00
59337;BME280;45115;52.002;4.686;2022-12-10T12:48:04;101099.22;;;0.16;100.00
59337;BME280;45115;52.002;4.686;2022-12-10T12:50:42;101096.22;;;0.19;100.00
59337;BME280;45115;52.002;4.686;2022-12-10T12:53:12;101101.06;;;0.22;100.00
59337;BME280;45115;52.002;4.686;2022-12-10T12:55:48;101109.41;;;0.11;100.00